Time;durP1;ratioP1;P1;durP2;ratioP2;P2;SDS_P1;SDS_P2;PMS_P1;PMS_P2;Temp;Humidity;BMP_temperature;BMP_pressure;BME280_temperature;BME280_humidity;BME280_pressure;Samples;Min_cycle;Max_cycle;Signal;HPM_P1;HPM_P2
2022/08/10 00:00:19;;;;;;;3.63;2.75;;;15.20;99.90;;;;;;5133028;27;20043;-50
2022/08/10 00:02:12;;;;;;;2.55;2.20;;;15.20;99.90;;;;;;5132087;27;20051;-49
2022/08/10 00:04:38;;;;;;;3.90;2.78;;;15.10;99.90;;;;;;5132167;27;20043;-52
2022/08/10 00:07:05;;;;;;;3.65;2.40;;;14.90;99.90;;;;;;5132795;27;20047;-54
2022/08/10 00:09:32;;;;;;;4.05;2.60;;;14.80;99.90;;;;;;5132143;27;20449;-49
2022/08/10 00:12:18;;;;;;;3.28;2.70;;;14.80;99.90;;;;;;5131823;27;20039;-50
2022/08/10 00:14:45;;;;;;;3.17;2.63;;;14.70;99.90;;;;;;5132595;27;20054;-49
2022/08/10 00:17:12;;;;;;;4.78;3.03;;;14.70;99.90;;;;;;5132671;27;20054;-50
2022/08/10 00:19:38;;;;;;;5.50;2.72;;;14.60;99.90;;;;;;5133019;27;20114;-51
2022/08/10 00:22:25;;;;;;;2.95;2.50;;;14.50;99.90;;;;;;5131880;27;20035;-52
2022/08/10 00:24:56;;;;;;;5.07;2.70;;;14.50;99.90;;;;;;5132616;27;20051;-51
2022/08/10 00:27:24;;;;;;;2.90;2.47;;;14.50;99.90;;;;;;5132782;27;20442;-49
2022/08/10 00:30:11;;;;;;;6.22;3.00;;;14.60;99.90;;;;;;5132210;27;20335;-53
2022/08/10 00:32:38;;;;;;;3.40;2.90;;;14.50;99.90;;;;;;5132016;27;20050;-49
2022/08/10 00:35:05;;;;;;;4.07;2.92;;;14.50;99.90;;;;;;5132539;27;20031;-51
2022/08/10 00:37:32;;;;;;;6.18;2.70;;;14.40;99.90;;;;;;5132466;27;20050;-50
2022/08/10 00:39:58;;;;;;;4.82;2.90;;;14.30;99.90;;;;;;5132185;27;20031;-53
2022/08/10 00:42:25;;;;;;;3.75;3.03;;;14.20;99.90;;;;;;5131194;28;20479;-50
2022/08/10 00:44:52;;;;;;;5.63;2.80;;;14.20;99.90;;;;;;5132416;28;20047;-50
2022/08/10 00:47:19;;;;;;;7.53;2.75;;;14.10;99.90;;;;;;5132482;27;20062;-49
2022/08/10 00:50:05;;;;;;;4.80;2.78;;;14.00;99.90;;;;;;5130809;28;20047;-49
2022/08/10 00:52:33;;;;;;;3.30;2.60;;;14.00;99.90;;;;;;5132158;27;20062;-49
2022/08/10 00:55:02;;;;;;;3.25;2.55;;;14.10;99.90;;;;;;5132263;27;20092;-51
2022/08/10 00:57:29;;;;;;;3.08;2.50;;;14.10;99.90;;;;;;5139678;27;20031;-52
2022/08/10 00:59:56;;;;;;;4.35;2.72;;;14.10;99.90;;;;;;5124215;27;20039;-52
2022/08/10 01:02:30;;;;;;;3.45;2.65;;;14.20;99.90;;;;;;5128643;28;20031;-53
2022/08/10 01:05:02;;;;;;;4.15;2.55;;;14.20;99.90;;;;;;5122011;27;20418;-51
2022/08/10 01:07:58;;;;;;;5.43;2.75;;;14.10;99.90;;;;;;5135601;27;20084;-53
2022/08/10 01:10:35;;;;;;;3.90;2.70;;;14.10;99.90;;;;;;5125536;28;20050;-49
2022/08/10 01:13:12;;;;;;;4.77;2.83;;;14.10;99.90;;;;;;5132151;28;20452;-50
2022/08/10 01:15:44;;;;;;;3.42;3.03;;;14.00;99.90;;;;;;5132134;27;20292;-49
2022/08/10 01:18:20;;;;;;;3.60;2.83;;;14.00;99.90;;;;;;5131229;28;20491;-51
2022/08/10 01:21:14;;;;;;;4.65;3.08;;;14.10;99.90;;;;;;5129234;27;20046;-50
2022/08/10 01:24:14;;;;;;;4.88;2.90;;;14.10;99.90;;;;;;5134469;27;20096;-50
2022/08/10 01:27:24;;;;;;;7.65;3.05;;;14.00;99.90;;;;;;5132140;27;20445;-50
2022/08/10 01:30:00;;;;;;;5.57;2.92;;;14.00;99.90;;;;;;5135341;27;20051;-49
2022/08/10 01:32:44;;;;;;;5.10;3.00;;;14.00;99.90;;;;;;5135951;27;20047;-49
2022/08/10 01:35:19;;;;;;;3.25;2.95;;;13.80;99.90;;;;;;5135197;27;20047;-49
2022/08/10 01:38:12;;;;;;;5.40;3.15;;;13.60;99.90;;;;;;5135530;27;20043;-49
2022/08/10 01:40:43;;;;;;;3.70;3.20;;;13.50;99.90;;;;;;5135442;27;20042;-52
2022/08/10 01:43:13;;;;;;;3.95;3.20;;;13.30;99.90;;;;;;5144413;22;20058;-53
2022/08/10 01:45:47;;;;;;;6.85;3.65;;;13.30;99.90;;;;;;5134995;27;20423;-53
2022/08/10 01:48:30;;;;;;;4.28;3.33;;;13.30;99.90;;;;;;5107264;28;20040;-53
2022/08/10 01:51:17;;;;;;;4.40;3.10;;;13.30;99.90;;;;;;5113955;28;20503;-52
2022/08/10 01:54:00;;;;;;;4.45;3.13;;;13.30;99.90;;;;;;5122832;27;20047;-53
2022/08/10 01:56:30;;;;;;;5.38;3.42;;;13.30;99.90;;;;;;5123160;27;20043;-51
2022/08/10 01:59:01;;;;;;;3.58;3.22;;;13.30;99.90;;;;;;5135406;27;20042;-53
2022/08/10 02:01:31;;;;;;;4.75;3.25;;;13.40;99.90;;;;;;5126302;27;20027;-51
2022/08/10 02:04:04;;;;;;;3.83;3.00;;;13.50;99.90;;;;;;5133654;27;20043;-50
2022/08/10 02:06:37;;;;;;;3.55;3.15;;;13.50;99.90;;;;;;5135388;27;20172;-52
2022/08/10 02:09:05;;;;;;;4.45;3.45;;;13.60;99.90;;;;;;5125272;27;20047;-53
2022/08/10 02:11:37;;;;;;;6.57;3.10;;;13.60;99.90;;;;;;5126147;27;20609;-50
2022/08/10 02:14:30;;;;;;;3.60;2.75;;;13.50;99.90;;;;;;5135138;27;20047;-50
2022/08/10 02:17:06;;;;;;;6.55;3.35;;;13.40;99.90;;;;;;5135000;27;20051;-50
2022/08/10 02:19:36;;;;;;;3.60;2.75;;;13.30;99.90;;;;;;5122425;27;20039;-53
2022/08/10 02:22:05;;;;;;;5.15;3.63;;;13.30;99.90;;;;;;5133785;27;20384;-53
2022/08/10 02:24:54;;;;;;;5.35;3.78;;;13.20;99.90;;;;;;5134679;27;20050;-51
2022/08/10 02:27:23;;;;;;;5.25;3.40;;;13.00;99.90;;;;;;5129505;27;20074;-52
2022/08/10 02:29:52;;;;;;;3.25;2.92;;;12.90;99.90;;;;;;5120451;27;20043;-51
2022/08/10 02:32:23;;;;;;;5.13;3.28;;;12.90;99.90;;;;;;5133959;27;20487;-53
2022/08/10 02:35:07;;;;;;;4.57;3.55;;;12.80;99.90;;;;;;5134637;27;20042;-52
2022/08/10 02:37:47;;;;;;;5.35;3.65;;;12.80;99.90;;;;;;5122330;27;20036;-52
2022/08/10 02:40:14;;;;;;;6.47;3.30;;;12.90;99.90;;;;;;5093306;28;20044;-50
2022/08/10 02:43:09;;;;;;;3.38;2.92;;;12.90;99.90;;;;;;5093462;28;20569;-53
2022/08/10 02:46:04;;;;;;;3.60;3.08;;;13.00;99.90;;;;;;5115417;27;20503;-52
2022/08/10 02:48:46;;;;;;;4.90;3.30;;;13.00;99.90;;;;;;5128683;27;20455;-52
2022/08/10 02:51:19;;;;;;;8.02;3.65;;;13.10;99.90;;;;;;5134131;27;20088;-53
2022/08/10 02:54:09;;;;;;;4.53;3.33;;;13.10;99.90;;;;;;5123895;27;20100;-53
2022/08/10 02:56:47;;;;;;;5.10;3.40;;;13.10;99.90;;;;;;5129397;27;20039;-52
2022/08/10 02:59:20;;;;;;;5.15;3.53;;;13.20;99.90;;;;;;5134434;27;20050;-51
2022/08/10 03:01:49;;;;;;;4.55;3.78;;;13.20;99.90;;;;;;5124055;27;20399;-52
2022/08/10 03:04:20;;;;;;;6.07;3.75;;;13.20;99.90;;;;;;5126591;27;20080;-49
2022/08/10 03:07:11;;;;;;;6.50;3.28;;;13.10;99.90;;;;;;5134012;27;20043;-53
2022/08/10 03:09:40;;;;;;;5.38;3.25;;;13.10;99.90;;;;;;5126053;27;20523;-52
2022/08/10 03:12:10;;;;;;;4.43;3.40;;;13.10;99.90;;;;;;5106075;27;20050;-50
2022/08/10 03:14:58;;;;;;;5.55;3.40;;;13.10;99.90;;;;;;5133928;27;20075;-52
2022/08/10 03:17:28;;;;;;;3.75;3.22;;;13.10;99.90;;;;;;5133846;27;20043;-52
2022/08/10 03:19:56;;;;;;;3.92;3.15;;;13.10;99.90;;;;;;5126931;27;20043;-52
2022/08/10 03:22:44;;;;;;;4.82;3.40;;;13.10;99.90;;;;;;5129977;27;20047;-51
2022/08/10 03:25:12;;;;;;;5.75;3.70;;;13.10;99.90;;;;;;5133761;27;20046;-53
2022/08/10 03:27:41;;;;;;;7.38;3.78;;;12.90;99.90;;;;;;5129866;27;20036;-49
2022/08/10 03:30:09;;;;;;;6.10;3.97;;;12.70;99.90;;;;;;5124470;27;20567;-51
2022/08/10 03:32:57;;;;;;;5.80;3.80;;;12.50;99.90;;;;;;5092672;28;20044;-52
2022/08/10 03:35:25;;;;;;;6.75;3.75;;;12.40;99.90;;;;;;5077261;28;20411;-54
2022/08/10 03:37:52;;;;;;;4.82;3.72;;;12.30;99.90;;;;;;5119591;27;20052;-51
2022/08/10 03:40:28;;;;;;;7.75;3.67;;;12.30;99.90;;;;;;5114423;27;20036;-53
2022/08/10 03:43:18;;;;;;;7.93;4.22;;;12.20;99.90;;;;;;5112693;28;20078;-52
2022/08/10 03:45:50;;;;;;;4.45;3.60;;;12.20;99.90;;;;;;5106971;28;20117;-54
2022/08/10 03:48:24;;;;;;;6.03;3.50;;;12.20;99.90;;;;;;5124168;27;20043;-53
2022/08/10 03:51:13;;;;;;;4.32;3.88;;;12.20;99.90;;;;;;5114295;27;20780;-52
2022/08/10 03:53:40;;;;;;;8.75;3.95;;;12.20;99.90;;;;;;5108082;28;20044;-50
2022/08/10 03:56:28;;;;;;;4.15;3.75;;;12.30;99.90;;;;;;5118993;27;20032;-52
2022/08/10 03:58:59;;;;;;;6.70;4.22;;;12.30;99.90;;;;;;5078446;28;20046;-53
2022/08/10 04:01:26;;;;;;;10.15;5.75;;;12.20;99.90;;;;;;5103061;28;20138;-50
2022/08/10 04:04:13;;;;;;;7.32;4.45;;;12.10;99.90;;;;;;5108537;27;20092;-53
2022/08/10 04:06:51;;;;;;;5.43;4.00;;;12.00;99.90;;;;;;5123941;27;20039;-53
2022/08/10 04:09:22;;;;;;;5.88;3.50;;;12.00;99.90;;;;;;5122856;27;20043;-52
2022/08/10 04:11:49;;;;;;;9.05;4.65;;;11.90;99.90;;;;;;5111420;28;20039;-52
2022/08/10 04:14:15;;;;;;;4.22;3.80;;;11.90;99.90;;;;;;5120032;27;20031;-53
2022/08/10 04:17:02;;;;;;;6.20;3.97;;;11.90;99.90;;;;;;5111318;28;20040;-51
2022/08/10 04:19:36;;;;;;;8.63;4.15;;;11.80;99.90;;;;;;5111998;28;20043;-52
2022/08/10 04:22:09;;;;;;;4.85;3.90;;;11.90;99.90;;;;;;5111096;28;20040;-49
2022/08/10 04:24:38;;;;;;;10.13;3.97;;;11.90;99.90;;;;;;5118548;27;20046;-49
2022/08/10 04:27:05;;;;;;;5.95;4.15;;;12.00;99.90;;;;;;5114951;27;20376;-50
2022/08/10 04:29:32;;;;;;;5.43;3.63;;;12.10;99.90;;;;;;5112020;28;20507;-52
2022/08/10 04:32:03;;;;;;;5.10;3.80;;;12.20;99.90;;;;;;5113115;27;20039;-50
2022/08/10 04:34:32;;;;;;;4.28;3.72;;;12.30;99.90;;;;;;5123982;27;20031;-52
2022/08/10 04:37:02;;;;;;;3.40;3.10;;;12.30;99.90;;;;;;5115664;27;20063;-53
2022/08/10 04:39:36;;;;;;;3.65;3.35;;;12.30;99.90;;;;;;5118454;28;20046;-52
2022/08/10 04:42:03;;;;;;;4.20;3.80;;;12.40;99.90;;;;;;5123125;27;20039;-51
2022/08/10 04:44:30;;;;;;;;;;;12.40;99.90;;;;;;5132918;28;20511;-50
2022/08/10 04:46:57;;;;;;;5.32;3.63;;;12.50;99.90;;;;;;5115148;28;20399;-51
2022/08/10 04:49:26;;;;;;;5.72;3.78;;;12.40;99.90;;;;;;5110685;28;20036;-52
2022/08/10 04:52:13;;;;;;;5.43;3.90;;;12.50;99.90;;;;;;5106728;28;20098;-53
2022/08/10 04:54:40;;;;;;;4.13;3.42;;;12.60;99.90;;;;;;5113463;28;20069;-52
2022/08/10 04:57:08;;;;;;;3.78;3.45;;;12.70;99.90;;;;;;5096688;28;20058;-51
2022/08/10 04:59:35;;;;;;;3.55;3.13;;;12.80;99.90;;;;;;5114572;28;20043;-52
2022/08/10 05:02:02;;;;;;;4.00;3.35;;;12.80;99.90;;;;;;5118013;27;20043;-52
2022/08/10 05:04:48;;;;;;;6.90;3.78;;;12.90;99.90;;;;;;5096077;28;20039;-53
2022/08/10 05:07:15;;;;;;;7.38;3.90;;;13.00;99.90;;;;;;5115210;28;20093;-51
2022/08/10 05:09:49;;;;;;;5.05;3.67;;;13.00;99.90;;;;;;5124100;27;20077;-50
2022/08/10 05:12:36;;;;;;;5.85;3.95;;;13.10;99.90;;;;;;5094850;28;20550;-50
2022/08/10 05:15:10;;;;;;;6.95;3.88;;;13.10;99.90;;;;;;5095313;28;20500;-51
2022/08/10 05:17:38;;;;;;;6.07;3.72;;;13.20;99.90;;;;;;5101556;28;20043;-52
2022/08/10 05:20:07;;;;;;;4.05;3.15;;;13.20;99.90;;;;;;5126456;27;20067;-51
2022/08/10 05:22:40;;;;;;;4.13;3.33;;;13.20;99.90;;;;;;5135582;27;20035;-53
2022/08/10 05:25:13;;;;;;;7.63;4.00;;;13.30;99.90;;;;;;5136219;27;20521;-50
2022/08/10 05:27:41;;;;;;;5.35;3.97;;;13.40;99.90;;;;;;5132129;27;20043;-53
2022/08/10 05:30:12;;;;;;;6.13;3.70;;;13.40;99.90;;;;;;5126675;27;20047;-53
2022/08/10 05:32:39;;;;;;;9.57;5.10;;;13.40;99.90;;;;;;5135779;27;20130;-52
2022/08/10 05:35:26;;;;;;;9.88;5.90;;;13.50;99.90;;;;;;5136114;27;20043;-51
2022/08/10 05:37:55;;;;;;;9.82;5.82;;;13.60;99.90;;;;;;5126341;27;20031;-52
2022/08/10 05:40:41;;;;;;;6.93;5.50;;;13.70;99.90;;;;;;5130438;27;20043;-53
2022/08/10 05:43:14;;;;;;;7.03;4.72;;;13.70;99.90;;;;;;5135569;27;20464;-51
2022/08/10 05:45:42;;;;;;;7.47;4.90;;;13.80;99.90;;;;;;5123860;27;20051;-51
2022/08/10 05:48:29;;;;;;;8.18;4.97;;;13.80;99.90;;;;;;5094616;28;20040;-50
2022/08/10 05:51:17;;;;;;;6.78;5.30;;;13.80;99.90;;;;;;5094216;28;20454;-51
2022/08/10 05:53:46;;;;;;;9.55;5.18;;;13.90;99.90;;;;;;5095201;27;20044;-52
2022/08/10 05:56:36;;;;;;;9.23;5.30;;;13.90;99.90;;;;;;5111288;27;20050;-52
2022/08/10 05:59:26;;;;;;;8.68;5.70;;;14.00;99.90;;;;;;5135577;27;20043;-51
2022/08/10 06:02:40;;;;;;;9.85;6.20;;;14.00;99.90;;;;;;5129334;27;20035;-52
2022/08/10 06:05:07;;;;;;;10.80;5.97;;;14.10;99.90;;;;;;5126613;27;20421;-52
2022/08/10 06:07:47;;;;;;;6.60;5.47;;;14.20;99.90;;;;;;5133808;27;20047;-54
2022/08/10 06:10:14;;;;;;;8.52;5.80;;;14.30;99.90;;;;;;5134657;27;20487;-53
2022/08/10 06:16:03;;;;;;;6.53;5.57;;;14.40;99.90;;;;;;5116607;27;20084;-51
2022/08/10 06:18:30;;;;;;;9.57;6.78;;;14.50;99.90;;;;;;5134987;27;20038;-50
2022/08/10 06:20:59;;;;;;;9.35;5.82;;;14.60;99.90;;;;;;5127018;27;20302;-51
2022/08/10 06:23:28;;;;;;;9.98;5.53;;;14.70;99.90;;;;;;5126186;27;20399;-51
2022/08/10 06:25:55;;;;;;;7.97;5.47;;;14.80;99.90;;;;;;5135171;27;20043;-52
2022/08/10 06:28:44;;;;;;;6.43;5.47;;;14.90;99.90;;;;;;5127970;27;20047;-53
2022/08/10 06:31:32;;;;;;;7.07;5.30;;;15.00;99.90;;;;;;5116609;27;20039;-52
2022/08/10 06:34:19;;;;;;;13.00;5.85;;;15.10;99.90;;;;;;5114009;28;20066;-52
2022/08/10 06:36:46;;;;;;;6.07;4.97;;;15.20;99.90;;;;;;5114022;28;20043;-53
2022/08/10 06:39:13;;;;;;;8.45;5.15;;;15.30;99.90;;;;;;5121928;27;20031;-51
2022/08/10 06:42:18;;;;;;;8.85;4.68;;;15.40;99.90;;;;;;5132710;27;20046;-53
2022/08/10 06:45:06;;;;;;;6.13;4.68;;;15.70;99.90;;;;;;5134550;27;20047;-51
2022/08/10 06:47:50;;;;;;;12.48;5.38;;;15.90;99.90;;;;;;5126725;27;20039;-53
2022/08/10 06:50:29;;;;;;;6.38;5.32;;;16.10;99.90;;;;;;5119042;27;20103;-52
2022/08/10 06:53:16;;;;;;;6.68;4.68;;;16.20;99.90;;;;;;5134281;27;20043;-52
2022/08/10 06:56:06;;;;;;;5.57;4.28;;;16.40;99.90;;;;;;5133521;27;20047;-50
2022/08/10 06:58:44;;;;;;;6.93;4.00;;;16.50;99.90;;;;;;5116910;27;20397;-54
2022/08/10 07:01:14;;;;;;;7.00;4.90;;;16.70;99.90;;;;;;5092886;28;20097;-53
2022/08/10 07:03:58;;;;;;;11.32;4.57;;;16.80;99.90;;;;;;5093043;28;20415;-50
2022/08/10 07:06:27;;;;;;;6.63;4.65;;;17.00;99.90;;;;;;5116281;27;20131;-52
2022/08/10 07:08:55;;;;;;;5.88;4.40;;;17.10;99.90;;;;;;5131480;27;20047;-54
2022/08/10 07:11:23;;;;;;;6.00;4.28;;;17.20;99.90;;;;;;5133714;27;20054;-50
2022/08/10 07:13:50;;;;;;;4.70;3.85;;;17.30;99.90;;;;;;5129533;27;20042;-50
2022/08/10 07:16:41;;;;;;;5.15;4.15;;;17.50;99.90;;;;;;5110879;27;20039;-49
2022/08/10 07:19:11;;;;;;;4.25;3.50;;;17.70;99.90;;;;;;5133269;27;20043;-49
2022/08/10 07:21:41;;;;;;;5.95;3.47;;;17.80;99.90;;;;;;5128457;27;20042;-50
2022/08/10 07:24:09;;;;;;;6.78;4.15;;;17.80;99.90;;;;;;5124882;27;20084;-50
2022/08/10 07:26:41;;;;;;;3.42;3.13;;;17.80;99.90;;;;;;5115344;27;20047;-49
2022/08/10 07:29:09;;;;;;;6.13;3.60;;;17.80;99.90;;;;;;5132721;27;20051;-50
2022/08/10 07:31:58;;;;;;;5.72;3.47;;;17.90;99.90;;;;;;5120591;27;20068;-49
2022/08/10 07:34:27;;;;;;;4.72;3.75;;;18.00;99.90;;;;;;5133643;27;20047;-49
2022/08/10 07:37:04;;;;;;;5.45;3.35;;;18.10;99.90;;;;;;5133350;27;20402;-50
2022/08/10 07:39:36;;;;;;;5.57;3.20;;;18.10;99.90;;;;;;5128347;27;20039;-49
2022/08/10 07:42:26;;;;;;;5.35;3.42;;;18.20;99.90;;;;;;5129063;22;20377;-51
2022/08/10 07:44:57;;;;;;;7.88;3.50;;;18.30;99.90;;;;;;5089513;28;20051;-51
2022/08/10 07:47:29;;;;;;;8.20;3.65;;;18.40;99.90;;;;;;5086361;28;20044;-49
2022/08/10 07:50:19;;;;;;;4.18;3.20;;;18.50;99.90;;;;;;5084712;28;20439;-49
2022/08/10 07:52:48;;;;;;;5.00;3.25;;;18.60;99.90;;;;;;5075099;28;20413;-50
2022/08/10 07:55:18;;;;;;;3.72;3.00;;;18.70;99.90;;;;;;5072161;28;20044;-50
2022/08/10 07:58:06;;;;;;;4.70;3.30;;;18.80;99.90;;;;;;5075167;28;20081;-51
2022/08/10 08:00:34;;;;;;;5.75;3.28;;;18.80;99.90;;;;;;5084688;28;20043;-50
2022/08/10 08:03:02;;;;;;;5.78;3.25;;;19.00;99.90;;;;;;5071364;28;20098;-50
2022/08/10 08:05:31;;;;;;;4.15;3.60;;;19.00;99.90;;;;;;5071833;28;20409;-49
2022/08/10 08:08:18;;;;;;;;;;;19.10;99.90;;;;;;5076684;28;20044;-51
2022/08/10 08:10:47;;;;;;;7.60;3.28;;;19.20;99.90;;;;;;5083044;28;20395;-49
2022/08/10 08:13:15;;;;;;;6.95;3.33;;;19.30;99.90;;;;;;5091523;28;20048;-49
2022/08/10 08:15:43;;;;;;;5.18;2.97;;;19.40;99.90;;;;;;5091829;28;20096;-50
2022/08/10 08:18:33;;;;;;;3.63;3.08;;;19.50;99.90;;;;;;5091168;28;20063;-49
2022/08/10 08:21:03;;;;;;;6.00;3.28;;;19.60;99.90;;;;;;5083167;28;20044;-50
2022/08/10 08:23:50;;;;;;;5.57;3.42;;;19.70;99.90;;;;;;5091362;28;20458;-50
2022/08/10 08:26:39;;;;;;;5.00;3.28;;;19.90;99.90;;;;;;5080293;28;20056;-49
2022/08/10 08:29:09;;;;;;;6.47;3.03;;;19.80;99.90;;;;;;5091388;28;20036;-50
2022/08/10 08:31:37;;;;;;;7.72;3.17;;;19.90;99.90;;;;;;5090449;28;20052;-50
2022/08/10 08:34:24;;;;;;;3.88;3.20;;;20.00;99.90;;;;;;5082652;28;20451;-49
2022/08/10 08:36:51;;;;;;;;;;;19.90;99.90;;;;;;5088981;28;20044;-49
2022/08/10 08:39:24;;;;;;;6.20;3.15;;;20.00;99.90;;;;;;5091779;28;20410;-50
2022/08/10 08:42:19;;;;;;;7.88;3.50;;;20.10;99.90;;;;;;5091139;28;20047;-52
2022/08/10 08:45:08;;;;;;;3.85;3.00;;;20.20;99.90;;;;;;5117036;28;20483;-51
2022/08/10 08:48:09;;;;;;;6.40;3.63;;;20.40;99.90;;;;;;5132211;28;20051;-50
2022/08/10 08:50:48;;;;;;;5.88;3.00;;;20.60;99.90;;;;;;5128323;28;20047;-52
2022/08/10 08:53:42;;;;;;;5.35;3.40;;;20.70;99.90;;;;;;5118662;28;20391;-50
2022/08/10 08:56:39;;;;;;;7.43;3.25;;;20.70;99.90;;;;;;5132145;27;20106;-49
2022/08/10 08:59:25;;;;;;;4.25;3.15;;;20.70;99.90;;;;;;5125877;27;20036;-50
2022/08/10 09:02:14;;;;;;;6.47;3.20;;;20.80;99.90;;;;;;5123304;27;20046;-49
2022/08/10 09:05:04;;;;;;;5.68;3.75;;;20.90;99.90;;;;;;5132317;27;20062;-50
2022/08/10 09:07:46;;;;;;;8.75;3.55;;;21.00;99.90;;;;;;5132073;27;20043;-50
2022/08/10 09:10:44;;;;;;;7.00;4.15;;;21.10;99.90;;;;;;5113735;28;20092;-51
2022/08/10 09:13:25;;;;;;;5.65;3.63;;;21.20;99.90;;;;;;5091140;28;20044;-49
2022/08/10 09:16:18;;;;;;;4.70;3.33;;;21.30;99.90;;;;;;5090926;28;20052;-49
2022/08/10 09:19:11;;;;;;;4.88;3.97;;;21.50;99.90;;;;;;5091053;28;20485;-51
2022/08/10 09:22:31;;;;;;;6.03;3.58;;;21.60;99.90;;;;;;5122882;27;20039;-50
2022/08/10 09:25:16;;;;;;;10.55;4.03;;;21.70;99.90;;;;;;5104787;27;20055;-52
2022/08/10 09:28:05;;;;;;;4.18;2.85;;;21.80;99.90;;;;;;5122772;27;20051;-50
2022/08/10 09:30:37;;;;;;;5.78;3.90;;;22.10;99.90;;;;;;5120521;28;20384;-51
2022/08/10 09:33:26;;;;;;;5.78;3.25;;;22.20;99.90;;;;;;5132024;27;20076;-53
2022/08/10 09:36:29;;;;;;;6.45;3.17;;;22.30;99.90;;;;;;5130765;27;20047;-49
2022/08/10 09:39:02;;;;;;;4.20;2.80;;;22.40;99.90;;;;;;5120260;28;20039;-49
2022/08/10 09:41:35;;;;;;;4.45;3.00;;;22.30;99.90;;;;;;5131789;27;20039;-51
2022/08/10 09:44:07;;;;;;;5.82;3.10;;;22.40;99.90;;;;;;5152449;27;20538;-50
2022/08/10 09:47:03;;;;;;;4.70;3.45;;;22.50;99.90;;;;;;5146790;27;20044;-50
2022/08/10 09:49:55;;;;;;;3.75;3.03;;;22.60;99.90;;;;;;5129532;27;20051;-49
2022/08/10 09:52:56;;;;;;;8.82;3.25;;;22.60;99.90;;;;;;5135315;27;20113;-52
2022/08/10 09:55:51;;;;;;;4.68;3.03;;;22.60;99.90;;;;;;5132973;27;20095;-50
2022/08/10 09:59:02;;;;;;;6.05;3.03;;;22.60;99.90;;;;;;5147028;27;20039;-51
2022/08/10 10:01:56;;;;;;;7.75;3.13;;;22.70;99.90;;;;;;5153804;27;20039;-50
2022/08/10 10:04:44;;;;;;;4.75;2.22;;;22.80;99.90;;;;;;5143791;27;20041;-50
2022/08/10 10:07:18;;;;;;;7.40;3.40;;;22.90;99.90;;;;;;5115091;28;20052;-51
2022/08/10 10:10:01;;;;;;;3.90;2.70;;;23.10;99.90;;;;;;5114339;28;20047;-50
2022/08/10 10:12:58;;;;;;;5.63;3.00;;;23.20;99.90;;;;;;5138182;27;20039;-50
2022/08/10 10:15:36;;;;;;;7.75;3.10;;;23.20;99.90;;;;;;5114514;28;20051;-51
2022/08/10 10:18:23;;;;;;;4.60;2.88;;;23.20;99.90;;;;;;5114536;28;20047;-50
2022/08/10 10:21:01;;;;;;;3.47;2.72;;;23.20;99.90;;;;;;5141281;27;20039;-50
2022/08/10 10:23:46;;;;;;;6.80;2.60;;;23.30;99.90;;;;;;5155672;27;20047;-49
2022/08/10 10:26:46;;;;;;;2.40;2.17;;;23.40;99.90;;;;;;5155833;27;20042;-50
2022/08/10 10:29:37;;;;;;;5.15;2.40;;;23.50;99.90;;;;;;5135215;27;20585;-50
2022/08/10 10:32:35;;;;;;;4.00;2.38;;;23.50;99.90;;;;;;5114227;28;20044;-51
2022/08/10 10:35:20;;;;;;;5.40;2.33;;;23.60;99.90;;;;;;5114565;27;20067;-49
2022/08/10 10:37:50;;;;;;;3.45;2.60;;;23.60;99.90;;;;;;5140584;27;20043;-50
2022/08/10 10:41:17;;;;;;;10.27;3.03;;;23.70;99.90;;;;;;5155348;27;20039;-51
2022/08/10 10:44:34;;;;;;;5.28;2.72;;;23.90;99.90;;;;;;5120549;27;20058;-50
2022/08/10 10:47:31;;;;;;;3.80;2.42;;;24.00;99.90;;;;;;5041995;28;20176;-51
2022/08/10 10:50:14;;;;;;;8.55;3.03;;;24.00;99.90;;;;;;5050068;28;20052;-52
2022/08/10 10:52:57;;;;;;;4.82;2.33;;;24.10;99.90;;;;;;5141074;27;20047;-51
2022/08/10 10:55:46;;;;;;;5.82;2.60;;;24.20;99.90;;;;;;5135943;27;20039;-50
2022/08/10 10:58:55;;;;;;;3.80;2.38;;;24.30;99.90;;;;;;5113763;28;20066;-50
2022/08/10 11:01:40;;;;;;;4.03;2.40;;;24.30;99.90;;;;;;5124460;27;20413;-50
2022/08/10 11:04:23;;;;;;;5.97;2.60;;;24.60;99.90;;;;;;5145815;27;20042;-50
2022/08/10 11:07:02;;;;;;;9.95;2.75;;;24.60;99.90;;;;;;5154791;27;20039;-50
2022/08/10 11:09:42;;;;;;;3.75;2.63;;;24.80;99.90;;;;;;5149136;27;20423;-53
2022/08/10 11:12:48;;;;;;;4.45;2.30;;;24.90;99.90;;;;;;5142848;27;20034;-50
2022/08/10 11:15:42;;;;;;;4.43;2.38;;;24.90;99.90;;;;;;5154662;27;20038;-51
2022/08/10 11:18:32;;;;;;;2.65;2.35;;;24.90;99.90;;;;;;5140196;27;20118;-50
2022/08/10 11:21:23;;;;;;;4.97;2.10;;;25.00;99.90;;;;;;5152692;27;20399;-52
2022/08/10 11:24:15;;;;;;;4.28;2.80;;;24.90;99.70;;;;;;5154380;27;20042;-53
2022/08/10 11:27:14;;;;;;;3.58;2.25;;;25.00;99.90;;;;;;5143149;27;20043;-50
2022/08/10 11:30:01;;;;;;;6.38;2.00;;;25.20;99.90;;;;;;5154300;27;20376;-50
2022/08/10 11:32:28;;;;;;;6.25;2.20;;;25.20;99.40;;;;;;5154276;27;20039;-54
2022/08/10 11:35:19;;;;;;;5.78;2.30;;;25.20;99.90;;;;;;5148172;27;20031;-51
2022/08/10 11:38:05;;;;;;;8.38;2.75;;;25.40;99.90;;;;;;5145447;27;20043;-49
2022/08/10 11:41:04;;;;;;;5.20;2.60;;;25.50;99.80;;;;;;5153837;27;20440;-50
2022/08/10 11:44:02;;;;;;;4.63;2.53;;;25.50;98.30;;;;;;5148055;27;20044;-50
2022/08/10 11:46:37;;;;;;;;;;;25.60;99.90;;;;;;5145883;27;20034;-50
2022/08/10 11:49:31;;;;;;;3.83;2.17;;;25.60;98.80;;;;;;5154050;27;19968;-50
2022/08/10 11:52:05;;;;;;;5.40;2.20;;;25.70;98.70;;;;;;5143437;27;20055;-50
2022/08/10 11:55:11;;;;;;;3.35;2.13;;;25.90;98.50;;;;;;5145191;27;20236;-50
2022/08/10 11:57:39;;;;;;;12.13;3.13;;;25.90;97.80;;;;;;5102528;27;20061;-51
2022/08/10 12:00:22;;;;;;;12.90;2.30;;;25.90;99.00;;;;;;5142058;27;20087;-50
2022/08/10 12:02:56;;;;;;;4.20;2.17;;;26.00;99.00;;;;;;5144899;27;20039;-51
2022/08/10 12:05:28;;;;;;;5.38;2.40;;;25.90;95.90;;;;;;5153672;27;20053;-50
2022/08/10 12:08:18;;;;;;;3.25;2.00;;;26.10;97.70;;;;;;5142723;27;20046;-49
2022/08/10 12:11:07;;;;;;;9.20;3.13;;;26.10;97.50;;;;;;5144390;27;20102;-51
2022/08/10 12:14:16;;;;;;;2.47;1.95;;;25.90;97.00;;;;;;5153395;27;20495;-50
2022/08/10 12:16:56;;;;;;;3.78;1.98;;;25.90;97.20;;;;;;5143099;27;20074;-51
2022/08/10 12:19:35;;;;;;;4.50;2.03;;;26.00;96.70;;;;;;5144669;27;20328;-50
2022/08/10 12:22:28;;;;;;;3.20;1.90;;;26.00;97.00;;;;;;5153377;27;20127;-50
2022/08/10 12:25:03;;;;;;;3.92;1.85;;;26.00;97.10;;;;;;5153448;27;20088;-51
2022/08/10 12:27:38;;;;;;;8.63;2.10;;;26.10;97.30;;;;;;5143591;27;20096;-53
2022/08/10 12:30:08;;;;;;;2.30;2.10;;;26.20;97.70;;;;;;5144222;27;20083;-50
2022/08/10 12:32:55;;;;;;;2.05;1.73;;;26.30;96.50;;;;;;5153169;27;20042;-50
2022/08/10 12:35:37;;;;;;;6.90;1.90;;;26.50;96.50;;;;;;5143458;27;20046;-50
2022/08/10 12:38:22;;;;;;;1.80;1.60;;;26.70;95.90;;;;;;5152254;27;20051;-50
2022/08/10 12:40:56;;;;;;;1.95;1.85;;;26.80;96.40;;;;;;5152663;27;20047;-50
2022/08/10 12:43:46;;;;;;;4.68;2.00;;;26.90;94.80;;;;;;5145705;27;20042;-50
2022/08/10 12:46:39;;;;;;;2.25;1.80;;;27.00;94.90;;;;;;5135674;27;20104;-51
2022/08/10 12:49:23;;;;;;;1.65;1.52;;;27.20;93.70;;;;;;5132396;28;20491;-50
2022/08/10 12:52:18;;;;;;;5.25;1.98;;;27.50;93.70;;;;;;5131370;28;20043;-50
2022/08/10 12:54:46;;;;;;;7.32;1.80;;;26.90;94.10;;;;;;5135404;27;20062;-50
2022/08/10 12:57:16;;;;;;;3.63;1.88;;;26.70;94.10;;;;;;5152752;27;20038;-50
2022/08/10 12:59:47;;;;;;;2.40;1.80;;;26.50;94.10;;;;;;5153105;27;20050;-51
2022/08/10 13:02:23;;;;;;;4.80;2.00;;;26.60;94.90;;;;;;5147577;27;20039;-50
2022/08/10 13:04:53;;;;;;;8.00;1.80;;;26.90;94.30;;;;;;5143950;27;20379;-50
2022/08/10 13:07:31;;;;;;;5.25;1.77;;;27.00;94.00;;;;;;5153075;27;20441;-51
2022/08/10 13:10:18;;;;;;;5.20;1.77;;;27.40;94.30;;;;;;5140725;27;20106;-50
2022/08/10 13:12:49;;;;;;;2.60;1.80;;;27.20;92.40;;;;;;5144138;27;20042;-51
2022/08/10 13:15:26;;;;;;;3.78;1.83;;;27.30;93.50;;;;;;5152857;27;20042;-51
2022/08/10 13:18:15;;;;;;;7.45;2.00;;;27.40;93.20;;;;;;5143334;27;20031;-50
2022/08/10 13:20:50;;;;;;;3.17;1.50;;;27.40;93.80;;;;;;5147995;27;20448;-50
2022/08/10 13:23:22;;;;;;;2.55;1.60;;;27.50;93.30;;;;;;5156960;27;20034;-51
2022/08/10 13:25:50;;;;;;;2.58;1.98;;;27.70;93.10;;;;;;5154818;27;20049;-50
2022/08/10 13:28:23;;;;;;;4.25;2.00;;;27.40;92.30;;;;;;5144207;27;20510;-50
2022/08/10 13:31:09;;;;;;;1.98;1.80;;;27.50;93.60;;;;;;5155333;27;20039;-52
2022/08/10 13:33:46;;;;;;;2.03;1.90;;;27.80;93.20;;;;;;5137417;27;20043;-52
2022/08/10 13:36:35;;;;;;;4.72;1.80;;;27.80;91.40;;;;;;5139297;27;20096;-50
2022/08/10 13:39:04;;;;;;;5.32;1.65;;;27.80;92.00;;;;;;5135713;27;20084;-50
2022/08/10 13:41:38;;;;;;;5.22;1.85;;;27.60;92.30;;;;;;5135180;27;20064;-51
2022/08/10 13:44:37;;;;;;;4.53;1.90;;;27.30;91.50;;;;;;5144171;22;20394;-53
2022/08/10 13:47:07;;;;;;;5.25;1.98;;;27.00;92.60;;;;;;5134729;27;20047;-50
2022/08/10 13:49:57;;;;;;;3.05;1.63;;;26.60;92.90;;;;;;5135939;27;20263;-50
2022/08/10 13:52:26;;;;;;;2.70;2.10;;;26.30;93.00;;;;;;5128754;27;20046;-49